createdAt,value
2023-04-14T00:01:51.601Z,6.18
2023-04-14T00:04:19.660Z,5.80
2023-04-14T00:06:47.243Z,6.35
2023-04-14T00:09:14.391Z,5.95
2023-04-14T00:11:41.580Z,5.72
2023-04-14T00:14:08.737Z,6.13
2023-04-14T00:16:36.058Z,5.82
2023-04-14T00:19:03.499Z,5.55
2023-04-14T00:21:31.792Z,5.85
2023-04-14T00:23:58.897Z,5.53
2023-04-14T00:26:26.033Z,5.25
2023-04-14T00:28:53.166Z,5.68
2023-04-14T00:31:20.592Z,5.30
2023-04-14T00:33:47.686Z,5.38
2023-04-14T00:36:14.818Z,4.90
2023-04-14T00:38:41.926Z,5.53
2023-04-14T00:41:09.043Z,5.20
2023-04-14T00:43:36.172Z,5.53
2023-04-14T00:46:03.336Z,4.82
2023-04-14T00:48:30.607Z,5.50
2023-04-14T00:50:57.777Z,5.28
2023-04-14T00:53:24.915Z,5.00
2023-04-14T00:55:52.017Z,4.82
2023-04-14T00:58:19.287Z,5.43
2023-04-14T01:00:52.322Z,5.47
2023-04-14T01:03:19.532Z,5.65
2023-04-14T01:05:46.680Z,5.53
2023-04-14T01:08:13.810Z,6.03
2023-04-14T01:10:42.184Z,5.65
2023-04-14T01:13:16.962Z,6.03
2023-04-14T01:15:58.213Z,6.10
2023-04-14T01:18:44.232Z,6.53
2023-04-14T01:21:14.031Z,6.63
2023-04-14T01:23:42.583Z,7.07
2023-04-14T01:26:28.757Z,7.55
2023-04-14T01:29:07.859Z,7.07
2023-04-14T01:31:44.110Z,6.45
2023-04-14T01:34:32.160Z,8.35
2023-04-14T01:37:07.576Z,6.70
2023-04-14T01:39:39.533Z,7.18
2023-04-14T01:42:08.970Z,6.88
2023-04-14T01:44:36.752Z,7.18
2023-04-14T01:47:05.894Z,6.65
2023-04-14T01:49:34.456Z,7.35
2023-04-14T01:52:02.642Z,6.63
2023-04-14T01:54:30.284Z,7.00
2023-04-14T01:56:57.616Z,6.47
2023-04-14T01:59:25.366Z,6.45
2023-04-14T02:01:53.154Z,6.50
2023-04-14T02:04:21.326Z,7.57
2023-04-14T02:06:49.394Z,6.35
2023-04-14T02:09:17.205Z,7.32
2023-04-14T02:11:45.007Z,6.88
2023-04-14T02:14:12.835Z,7.05
2023-04-14T02:16:40.871Z,6.55
2023-04-14T02:19:08.265Z,6.78
2023-04-14T02:21:36.080Z,7.05
2023-04-14T02:24:03.629Z,7.20
2023-04-14T02:26:32.438Z,7.85
2023-04-14T02:29:11.707Z,7.60
2023-04-14T02:31:43.659Z,7.28
2023-04-14T02:34:12.405Z,6.88
2023-04-14T02:36:41.048Z,7.28
2023-04-14T02:39:17.739Z,7.80
2023-04-14T02:41:46.018Z,7.22
2023-04-14T02:44:25.364Z,6.93
2023-04-14T02:46:56.559Z,7.82
2023-04-14T02:49:24.591Z,7.68
2023-04-14T02:51:53.211Z,7.43
2023-04-14T02:54:21.117Z,7.45
2023-04-14T02:56:48.556Z,7.93
2023-04-14T02:59:16.199Z,7.80
2023-04-14T03:01:44.364Z,7.93
2023-04-14T03:04:11.698Z,8.15
2023-04-14T03:06:39.679Z,8.43
2023-04-14T03:09:07.120Z,8.32
2023-04-14T03:11:35.911Z,8.80
2023-04-14T03:14:03.911Z,8.88
2023-04-14T03:16:31.124Z,8.75
2023-04-14T03:18:59.071Z,9.18
2023-04-14T03:21:26.862Z,9.40
2023-04-14T03:23:55.823Z,8.80
2023-04-14T03:26:24.175Z,9.48
2023-04-14T03:28:53.505Z,9.52
2023-04-14T03:31:21.941Z,9.82
2023-04-14T03:33:55.801Z,10.07
2023-04-14T03:36:23.251Z,9.75
2023-04-14T03:38:50.658Z,9.82
2023-04-14T03:41:18.842Z,9.93
2023-04-14T03:43:46.655Z,10.60
2023-04-14T03:46:14.137Z,10.38
2023-04-14T03:48:44.295Z,10.63
2023-04-14T03:51:13.466Z,10.20
2023-04-14T03:53:42.634Z,11.23
2023-04-14T03:56:13.590Z,11.68
2023-04-14T03:58:42.203Z,11.02
2023-04-14T04:01:09.487Z,10.95
2023-04-14T04:03:38.522Z,11.63
2023-04-14T04:06:07.056Z,12.07
2023-04-14T04:08:34.872Z,12.43
2023-04-14T04:11:02.390Z,11.10
2023-04-14T04:13:30.434Z,11.30
2023-04-14T04:15:58.273Z,10.63
2023-04-14T04:18:27.075Z,11.32
2023-04-14T04:20:56.253Z,11.00
2023-04-14T04:23:25.347Z,11.23
2023-04-14T04:25:52.920Z,11.52
2023-04-14T04:28:20.240Z,11.10
2023-04-14T04:30:48.184Z,12.27
2023-04-14T04:33:16.066Z,11.23
2023-04-14T04:35:43.548Z,11.25
2023-04-14T04:38:11.489Z,12.13
2023-04-14T04:40:38.949Z,12.68
2023-04-14T04:43:06.315Z,12.27
2023-04-14T04:45:45.457Z,12.80
2023-04-14T04:48:12.626Z,12.48
2023-04-14T04:50:39.875Z,12.57
2023-04-14T04:53:07.043Z,12.95
2023-04-14T04:55:34.101Z,12.77
2023-04-14T04:58:01.256Z,12.55
2023-04-14T05:00:28.464Z,13.48
2023-04-14T05:02:56.528Z,12.13
2023-04-14T05:05:23.758Z,12.40
2023-04-14T05:07:51.047Z,12.80
2023-04-14T05:10:18.125Z,13.45
2023-04-14T05:12:45.298Z,12.52
2023-04-14T05:15:12.579Z,13.20
2023-04-14T05:17:39.770Z,14.07
2023-04-14T05:20:07.070Z,13.65
2023-04-14T05:22:34.218Z,13.18
2023-04-14T05:25:01.620Z,14.05
2023-04-14T05:27:28.817Z,12.95
2023-04-14T05:29:56.205Z,13.15
2023-04-14T05:32:23.669Z,14.57
2023-04-14T05:34:50.836Z,12.73
2023-04-14T05:37:18.033Z,13.00
2023-04-14T05:39:45.200Z,14.40
2023-04-14T05:42:12.305Z,13.48
2023-04-14T05:44:39.520Z,13.15
2023-04-14T05:47:06.735Z,14.20
2023-04-14T05:49:33.996Z,13.95
2023-04-14T05:52:01.254Z,13.52
2023-04-14T05:54:28.356Z,14.23
2023-04-14T05:56:56.403Z,13.55
2023-04-14T05:59:23.639Z,12.13
2023-04-14T06:01:50.838Z,13.48
2023-04-14T06:04:18.354Z,14.43
2023-04-14T06:06:45.812Z,14.00
2023-04-14T06:09:12.887Z,13.88
2023-04-14T06:11:40.392Z,12.52
2023-04-14T06:14:07.674Z,13.27
2023-04-14T06:16:34.930Z,12.73
2023-04-14T06:19:02.350Z,13.60
2023-04-14T06:21:29.729Z,14.02
2023-04-14T06:23:56.827Z,14.15
2023-04-14T06:26:23.936Z,14.05
2023-04-14T06:28:51.280Z,14.20
2023-04-14T06:31:18.404Z,13.68
2023-04-14T06:33:45.836Z,15.23
2023-04-14T06:36:13.915Z,13.73
2023-04-14T06:38:41.114Z,14.80
2023-04-14T06:41:08.187Z,13.90
2023-04-14T06:43:35.564Z,14.23
2023-04-14T06:46:02.718Z,14.75
2023-04-14T06:48:29.893Z,13.43
2023-04-14T06:50:57.516Z,15.32
2023-04-14T06:53:24.779Z,14.57
2023-04-14T06:55:59.232Z,15.02
2023-04-14T06:58:27.454Z,14.73
2023-04-14T07:00:58.022Z,14.57
2023-04-14T07:03:25.606Z,15.25
2023-04-14T07:05:53.217Z,14.88
2023-04-14T07:08:21.003Z,13.30
2023-04-14T07:10:48.632Z,14.30
2023-04-14T07:13:15.797Z,13.93
2023-04-14T07:15:47.692Z,14.35
2023-04-14T07:18:15.156Z,12.65
2023-04-14T07:20:42.495Z,13.63
2023-04-14T07:23:10.113Z,14.25
2023-04-14T07:25:37.460Z,13.07
2023-04-14T07:28:06.246Z,14.00
2023-04-14T07:30:33.452Z,19.38
2023-04-14T07:33:02.518Z,13.45
2023-04-14T07:35:29.886Z,13.93
2023-04-14T07:37:57.011Z,13.18
2023-04-14T07:40:24.239Z,13.73
2023-04-14T07:42:51.601Z,13.02
2023-04-14T07:45:18.920Z,12.75
2023-04-14T07:47:46.288Z,13.50
2023-04-14T07:50:13.426Z,13.07
2023-04-14T07:52:40.736Z,13.30
2023-04-14T07:55:07.949Z,13.23
2023-04-14T07:57:35.421Z,13.32
2023-04-14T08:00:03.923Z,12.70
2023-04-14T08:02:31.754Z,13.35
2023-04-14T08:04:58.926Z,13.50
2023-04-14T08:07:28.548Z,13.85
2023-04-14T08:09:55.803Z,14.45
2023-04-14T08:12:25.104Z,12.80
2023-04-14T08:14:57.044Z,13.68
2023-04-14T08:17:24.857Z,14.60
2023-04-14T08:19:52.020Z,13.40
2023-04-14T08:22:19.167Z,14.15
2023-04-14T08:24:46.324Z,12.95
2023-04-14T08:27:13.448Z,14.00
2023-04-14T08:29:40.885Z,14.30
2023-04-14T08:32:08.142Z,14.00
2023-04-14T08:34:35.374Z,13.50
2023-04-14T08:37:02.491Z,13.52
2023-04-14T08:39:29.659Z,13.45
2023-04-14T08:41:58.200Z,14.07
2023-04-14T08:44:25.514Z,13.48
2023-04-14T08:46:53.464Z,14.25
2023-04-14T08:49:28.269Z,13.68
2023-04-14T08:51:55.985Z,13.73
2023-04-14T08:54:23.463Z,13.93
2023-04-14T08:56:50.936Z,14.20
2023-04-14T08:59:18.091Z,13.93
2023-04-14T09:01:46.494Z,13.48
2023-04-14T09:04:14.656Z,13.02
2023-04-14T09:06:41.932Z,12.88
2023-04-14T09:09:10.672Z,13.32
2023-04-14T09:11:37.981Z,12.80
2023-04-14T09:14:06.068Z,13.50
2023-04-14T09:16:33.497Z,13.38
2023-04-14T09:19:06.779Z,13.23
2023-04-14T09:21:52.475Z,12.88
2023-04-14T09:24:24.977Z,12.90
2023-04-14T09:26:52.124Z,12.02
2023-04-14T09:29:19.267Z,13.52
2023-04-14T09:31:46.471Z,12.63
2023-04-14T09:34:20.324Z,12.75
2023-04-14T09:37:06.512Z,12.20
2023-04-14T09:39:34.317Z,11.63
2023-04-14T09:42:01.938Z,11.77
2023-04-14T09:44:29.731Z,12.10
2023-04-14T09:46:57.930Z,12.20
2023-04-14T09:49:25.452Z,13.48
2023-04-14T09:51:55.954Z,11.23
2023-04-14T09:54:25.724Z,12.27
2023-04-14T09:56:53.513Z,11.88
2023-04-14T09:59:34.158Z,11.48
2023-04-14T10:02:04.105Z,13.95
2023-04-14T10:04:31.497Z,11.30
2023-04-14T10:06:59.156Z,13.20
2023-04-14T10:09:30.923Z,12.25
2023-04-14T10:12:12.576Z,11.82
2023-04-14T10:14:43.777Z,11.82
2023-04-14T10:17:11.771Z,11.27
2023-04-14T10:19:38.966Z,12.00
2023-04-14T10:22:06.565Z,12.55
2023-04-14T10:24:33.886Z,11.60
2023-04-14T10:27:03.470Z,11.52
2023-04-14T10:29:31.116Z,12.02
2023-04-14T10:32:00.601Z,12.52
2023-04-14T10:34:30.647Z,10.30
2023-04-14T10:37:12.304Z,11.77
2023-04-14T10:39:39.741Z,11.82
2023-04-14T10:42:06.855Z,12.40
2023-04-14T10:44:35.153Z,11.43
2023-04-14T10:47:05.052Z,12.00
2023-04-14T10:49:34.083Z,12.20
2023-04-14T10:52:05.229Z,11.25
2023-04-14T10:54:52.648Z,11.20
2023-04-14T10:57:22.800Z,11.77
2023-04-14T10:59:55.004Z,11.88
2023-04-14T11:02:33.947Z,10.15
2023-04-14T11:05:04.131Z,10.60
2023-04-14T11:07:32.575Z,11.07
2023-04-14T11:10:20.550Z,10.75
2023-04-14T11:12:48.579Z,10.40
2023-04-14T11:15:19.004Z,10.63
2023-04-14T11:17:46.258Z,10.27
2023-04-14T11:20:23.315Z,9.70
2023-04-14T11:22:51.467Z,9.60
2023-04-14T11:25:21.545Z,11.05
2023-04-14T11:27:51.778Z,10.57
2023-04-14T11:30:19.650Z,9.77
2023-04-14T11:32:47.888Z,9.77
2023-04-14T11:35:16.374Z,9.52
2023-04-14T11:37:43.928Z,9.65
2023-04-14T11:40:12.412Z,10.88
2023-04-14T11:42:39.972Z,13.80
2023-04-14T11:45:07.348Z,10.35
2023-04-14T11:47:34.502Z,10.02
2023-04-14T11:50:05.672Z,10.77
2023-04-14T11:52:36.462Z,10.52
2023-04-14T11:55:03.634Z,10.70
2023-04-14T11:57:30.825Z,9.98
2023-04-14T11:59:58.084Z,11.00
2023-04-14T12:02:25.380Z,9.68
2023-04-14T12:04:53.348Z,9.82
2023-04-14T12:07:21.732Z,9.63
2023-04-14T12:09:49.572Z,9.60
2023-04-14T12:12:20.212Z,8.73
2023-04-14T12:14:50.908Z,9.13
2023-04-14T12:17:20.273Z,9.52
2023-04-14T12:19:48.900Z,9.35
2023-04-14T12:22:23.253Z,8.63
2023-04-14T12:24:50.690Z,8.70
2023-04-14T12:27:22.778Z,9.10
2023-04-14T12:29:50.254Z,9.35
2023-04-14T12:32:18.075Z,9.20
2023-04-14T12:34:55.093Z,9.38
2023-04-14T12:37:26.004Z,9.10
2023-04-14T12:39:57.551Z,9.27
2023-04-14T12:42:25.200Z,9.30
2023-04-14T12:44:55.189Z,9.60
2023-04-14T12:47:32.570Z,9.27
2023-04-14T12:50:00.561Z,8.95
2023-04-14T12:52:54.025Z,9.73
2023-04-14T12:55:22.157Z,9.55
2023-04-14T12:57:52.158Z,9.73
2023-04-14T13:00:19.548Z,9.82
2023-04-14T13:02:47.157Z,9.80
2023-04-14T13:05:14.818Z,10.25
2023-04-14T13:07:42.680Z,9.88
2023-04-14T13:10:10.959Z,10.32
2023-04-14T13:12:38.061Z,9.30
2023-04-14T13:15:05.872Z,9.18
2023-04-14T13:17:33.170Z,8.93
2023-04-14T13:20:00.373Z,8.55
2023-04-14T13:22:27.733Z,8.13
2023-04-14T13:24:58.319Z,9.82
2023-04-14T13:27:25.456Z,8.75
2023-04-14T13:29:52.620Z,8.73
2023-04-14T13:32:19.800Z,9.05
2023-04-14T13:34:46.965Z,8.85
2023-04-14T13:37:14.116Z,8.93
2023-04-14T13:39:41.269Z,8.00
2023-04-14T13:42:08.388Z,9.20
2023-04-14T13:44:35.750Z,9.05
2023-04-14T13:47:02.923Z,9.57
2023-04-14T13:49:30.122Z,9.02
2023-04-14T13:51:57.311Z,7.82
2023-04-14T13:54:24.566Z,8.50
2023-04-14T13:56:51.648Z,8.32
2023-04-14T13:59:18.964Z,7.45
2023-04-14T14:01:46.170Z,6.88
2023-04-14T14:04:13.572Z,8.15
2023-04-14T14:06:40.737Z,7.55
2023-04-14T14:09:08.148Z,8.45
2023-04-14T14:11:35.463Z,8.50
2023-04-14T14:14:02.974Z,8.93
2023-04-14T14:16:36.697Z,8.18
2023-04-14T14:19:07.299Z,9.80
2023-04-14T14:21:35.845Z,8.90
2023-04-14T14:24:03.229Z,8.35
2023-04-14T14:26:30.627Z,8.68
2023-04-14T14:28:57.747Z,8.02
2023-04-14T14:31:24.922Z,7.93
2023-04-14T14:33:52.164Z,7.00
2023-04-14T14:36:19.394Z,8.57
2023-04-14T14:38:46.471Z,8.15
2023-04-14T14:41:13.596Z,7.85
2023-04-14T14:43:40.717Z,8.02
2023-04-14T14:46:07.928Z,8.38
2023-04-14T14:48:35.943Z,8.60
2023-04-14T14:51:03.038Z,7.97
2023-04-14T14:53:31.789Z,9.40
2023-04-14T14:55:59.091Z,8.20
2023-04-14T14:58:26.233Z,8.23
2023-04-14T15:00:53.573Z,8.43
2023-04-14T15:03:20.779Z,7.80
2023-04-14T15:05:49.857Z,7.72
2023-04-14T15:08:17.041Z,8.55
2023-04-14T15:10:44.165Z,7.80
2023-04-14T15:13:12.328Z,7.78
2023-04-14T15:15:39.423Z,7.63
2023-04-14T15:18:07.348Z,7.88
2023-04-14T15:20:34.462Z,6.97
2023-04-14T15:23:01.570Z,6.95
2023-04-14T15:25:28.726Z,7.65
2023-04-14T15:27:55.803Z,7.47
2023-04-14T15:30:23.877Z,7.97
2023-04-14T15:32:51.551Z,7.43
2023-04-14T15:35:18.816Z,7.60
2023-04-14T15:37:46.394Z,7.15
2023-04-14T15:40:13.530Z,8.05
2023-04-14T15:42:40.954Z,7.43
2023-04-14T15:45:08.296Z,7.40
2023-04-14T15:47:35.464Z,7.45
2023-04-14T15:50:09.915Z,7.68
2023-04-14T15:52:38.185Z,7.35
2023-04-14T15:55:05.433Z,7.07
2023-04-14T15:57:32.587Z,7.90
2023-04-14T15:59:59.802Z,7.40
2023-04-14T16:02:28.609Z,7.45
2023-04-14T16:04:56.750Z,8.23
2023-04-14T16:07:24.041Z,8.15
2023-04-14T16:09:51.132Z,8.13
2023-04-14T16:12:18.218Z,7.47
2023-04-14T16:14:45.523Z,7.13
2023-04-14T16:17:12.892Z,6.93
2023-04-14T16:19:39.967Z,7.20
2023-04-14T16:22:07.345Z,7.35
2023-04-14T16:24:34.786Z,7.25
2023-04-14T16:27:01.941Z,7.28
2023-04-14T16:29:29.119Z,7.43
2023-04-14T16:31:56.273Z,7.25
2023-04-14T16:34:23.440Z,8.38
2023-04-14T16:36:50.753Z,7.40
2023-04-14T16:39:17.867Z,7.38
2023-04-14T16:41:48.412Z,7.82
2023-04-14T16:44:15.569Z,8.20
2023-04-14T16:46:42.732Z,7.47
2023-04-14T16:49:10.026Z,7.43
2023-04-14T16:51:38.169Z,7.78
2023-04-14T16:54:05.247Z,6.65
2023-04-14T16:56:34.115Z,6.43
2023-04-14T16:59:02.707Z,6.88
2023-04-14T17:01:30.620Z,7.35
2023-04-14T17:03:58.025Z,6.28
2023-04-14T17:06:25.525Z,6.40
2023-04-14T17:08:53.013Z,7.10
2023-04-14T17:11:20.305Z,7.57
2023-04-14T17:13:47.478Z,5.80
2023-04-14T17:16:14.597Z,6.38
2023-04-14T17:18:42.750Z,6.47
2023-04-14T17:21:10.464Z,8.07
2023-04-14T17:23:37.878Z,6.15
2023-04-14T17:26:05.735Z,5.75
2023-04-14T17:28:34.884Z,6.00
2023-04-14T17:31:02.663Z,6.13
2023-04-14T17:33:29.911Z,6.85
2023-04-14T17:35:57.298Z,6.80
2023-04-14T17:38:25.024Z,6.82
2023-04-14T17:40:54.544Z,6.45
2023-04-14T17:43:22.596Z,6.65
2023-04-14T17:45:50.626Z,6.95
2023-04-14T17:48:18.014Z,6.30
2023-04-14T17:50:45.394Z,7.22
2023-04-14T17:53:14.750Z,7.30
2023-04-14T17:55:41.862Z,7.43
2023-04-14T17:58:10.073Z,7.00
2023-04-14T18:00:37.267Z,6.32
2023-04-14T18:03:04.779Z,7.18
2023-04-14T18:05:32.269Z,7.38
2023-04-14T18:07:59.347Z,6.18
2023-04-14T18:10:26.477Z,6.75
2023-04-14T18:12:53.647Z,7.05
2023-04-14T18:15:20.752Z,6.63
2023-04-14T18:17:47.883Z,6.95
2023-04-14T18:20:15.652Z,6.57
2023-04-14T18:22:43.229Z,6.63
2023-04-14T18:25:10.433Z,6.32
2023-04-14T18:32:35.850Z,6.20
2023-04-14T18:35:03.248Z,6.50
2023-04-14T18:37:30.862Z,6.07
2023-04-14T18:39:57.945Z,6.43
2023-04-14T18:42:25.111Z,6.47
2023-04-14T18:44:53.538Z,5.85
2023-04-14T18:47:20.625Z,6.75
2023-04-14T18:49:47.844Z,5.95
2023-04-14T18:52:14.976Z,6.60
2023-04-14T18:54:42.789Z,6.35
2023-04-14T18:57:10.135Z,5.90
2023-04-14T18:59:37.206Z,5.38
2023-04-14T19:02:05.270Z,6.25
2023-04-14T19:04:32.570Z,5.75
2023-04-14T19:06:59.700Z,5.88
2023-04-14T19:09:28.115Z,6.50
2023-04-14T19:11:55.765Z,6.13
2023-04-14T19:14:22.844Z,6.25
2023-04-14T19:16:50.255Z,5.80
2023-04-14T19:19:17.475Z,5.80
2023-04-14T19:21:44.548Z,6.60
2023-04-14T19:24:12.432Z,6.40
2023-04-14T19:26:40.880Z,26.17
2023-04-14T19:29:08.133Z,6.10
2023-04-14T19:31:35.288Z,6.20
2023-04-14T19:34:02.462Z,6.65
2023-04-14T19:36:32.206Z,6.82
2023-04-14T19:38:59.559Z,7.15
2023-04-14T19:41:27.424Z,6.15
2023-04-14T19:43:54.524Z,6.53
2023-04-14T19:46:21.685Z,5.32
2023-04-14T19:48:49.427Z,6.25
2023-04-14T19:51:16.591Z,6.72
2023-04-14T19:53:46.207Z,6.60
2023-04-14T19:56:13.385Z,6.50
2023-04-14T19:58:40.770Z,7.32
2023-04-14T20:01:07.963Z,6.15
2023-04-14T20:03:35.288Z,6.85
2023-04-14T20:06:03.085Z,5.40
2023-04-14T20:08:30.831Z,6.35
2023-04-14T20:10:58.101Z,5.80
2023-04-14T20:13:30.401Z,6.97
2023-04-14T20:15:57.543Z,6.22
2023-04-14T20:18:26.017Z,6.10
2023-04-14T20:20:54.767Z,5.93
2023-04-14T20:23:22.026Z,6.55
2023-04-14T20:25:50.610Z,6.15
2023-04-14T20:28:19.449Z,6.35
2023-04-14T20:30:49.351Z,5.93
2023-04-14T20:33:18.372Z,5.10
2023-04-14T20:35:45.828Z,5.82
2023-04-14T20:38:15.352Z,5.90
2023-04-14T20:40:42.710Z,5.22
2023-04-14T20:43:09.783Z,5.32
2023-04-14T20:45:36.881Z,4.47
2023-04-14T20:48:04.122Z,4.72
2023-04-14T20:50:31.240Z,5.10
2023-04-14T20:52:58.348Z,5.10
2023-04-14T20:55:26.286Z,4.40
2023-04-14T20:57:53.595Z,4.00
2023-04-14T21:00:20.905Z,4.70
2023-04-14T21:02:48.808Z,4.55
2023-04-14T21:05:17.599Z,4.53
2023-04-14T21:07:46.008Z,4.70
2023-04-14T21:10:14.912Z,5.47
2023-04-14T21:15:15.971Z,6.07
2023-04-14T21:15:52.691Z,6.63
2023-04-14T21:18:16.278Z,5.68
2023-04-14T21:20:43.613Z,6.05
2023-04-14T21:23:10.758Z,6.03
2023-04-14T21:25:37.862Z,7.25
2023-04-14T21:28:05.168Z,7.25
2023-04-14T21:30:32.236Z,7.68
2023-04-14T21:32:59.424Z,7.93
2023-04-14T21:35:26.747Z,7.50
2023-04-14T21:37:53.848Z,8.68
2023-04-14T21:40:21.654Z,7.40
2023-04-14T21:42:48.950Z,5.90
2023-04-14T21:45:16.584Z,5.43
2023-04-14T21:47:43.677Z,5.53
2023-04-14T21:50:11.110Z,5.82
2023-04-14T21:52:38.290Z,5.40
2023-04-14T21:55:05.643Z,4.40
2023-04-14T21:57:43.851Z,4.38
2023-04-14T22:00:17.608Z,4.80
2023-04-14T22:02:45.891Z,5.00
2023-04-14T22:05:13.608Z,5.10
2023-04-14T22:07:41.201Z,4.72
2023-04-14T22:10:08.652Z,4.85
2023-04-14T22:12:39.863Z,5.03
2023-04-14T22:17:36.534Z,6.00
2023-04-14T22:20:06.035Z,5.88
2023-04-14T22:22:33.154Z,6.13
2023-04-14T22:25:00.290Z,5.85
2023-04-14T22:27:27.724Z,6.28
2023-04-14T22:29:54.912Z,6.97
2023-04-14T22:32:22.122Z,7.15
2023-04-14T22:34:49.365Z,6.47
2023-04-14T22:37:16.458Z,7.30
2023-04-14T22:39:43.577Z,6.53
2023-04-14T22:42:11.011Z,7.05
2023-04-14T22:44:38.285Z,6.32
2023-04-14T22:47:05.441Z,6.50
2023-04-14T22:49:32.544Z,8.18
2023-04-14T22:51:59.635Z,6.90
2023-04-14T22:54:27.186Z,8.23
2023-04-14T22:56:54.295Z,7.70
2023-04-14T22:59:21.548Z,9.00
2023-04-14T23:01:49.099Z,8.60
2023-04-14T23:04:16.288Z,7.80
2023-04-14T23:06:43.653Z,8.48
2023-04-14T23:09:10.855Z,7.95
2023-04-14T23:11:38.228Z,7.35
2023-04-14T23:14:05.360Z,7.10
2023-04-14T23:16:32.542Z,7.07
2023-04-14T23:18:59.877Z,8.10
2023-04-14T23:21:27.468Z,7.22
2023-04-14T23:23:54.661Z,7.15
2023-04-14T23:26:22.002Z,7.60
2023-04-14T23:28:49.250Z,7.22
2023-04-14T23:31:17.407Z,7.65
2023-04-14T23:33:45.344Z,7.53
2023-04-14T23:36:12.447Z,9.38
2023-04-14T23:38:39.615Z,10.32
2023-04-14T23:41:07.152Z,9.05
2023-04-14T23:43:34.581Z,9.35
2023-04-14T23:46:02.003Z,10.63
2023-04-14T23:48:29.182Z,8.65
2023-04-14T23:51:00.341Z,8.80
2023-04-14T23:53:39.884Z,8.73
2023-04-14T23:56:08.015Z,7.95
2023-04-14T23:58:35.149Z,8.15
